createdAt,value
2022-08-04T00:00:08.535Z,2.90
2022-08-04T00:02:57.186Z,2.83
2022-08-04T00:05:34.215Z,2.50
2022-08-04T00:08:26.487Z,2.90
2022-08-04T00:10:59.597Z,2.95
2022-08-04T00:13:30.854Z,3.20
2022-08-04T00:16:00.117Z,2.90
2022-08-04T00:18:42.538Z,2.95
2022-08-04T00:21:14.821Z,3.05
2022-08-04T00:24:10.360Z,3.00
2022-08-04T00:26:33.218Z,2.90
2022-08-04T00:29:01.257Z,3.75
2022-08-04T00:31:53.655Z,2.97
2022-08-04T00:34:16.136Z,2.92
2022-08-04T00:36:46.661Z,2.55
2022-08-04T00:39:16.275Z,3.72
2022-08-04T00:42:22.397Z,2.95
2022-08-04T00:45:00.580Z,3.10
2022-08-04T00:48:02.877Z,2.67
2022-08-04T00:50:42.025Z,3.10
2022-08-04T00:53:40.680Z,2.80
2022-08-04T00:56:35.774Z,2.85
2022-08-04T00:59:15.074Z,2.80
2022-08-04T01:01:53.389Z,2.58
2022-08-04T01:04:46.009Z,2.70
2022-08-04T01:07:52.057Z,2.78
2022-08-04T01:10:18.872Z,2.83
2022-08-04T01:13:02.356Z,3.15
2022-08-04T01:16:00.474Z,2.65
2022-08-04T01:18:30.591Z,3.00
2022-08-04T01:21:15.489Z,2.92
2022-08-04T01:23:50.955Z,2.58
2022-08-04T01:26:42.623Z,2.70
2022-08-04T01:29:29.336Z,2.60
2022-08-04T01:32:51.712Z,2.70
2022-08-04T01:38:28.465Z,2.90
2022-08-04T01:41:05.083Z,2.90
2022-08-04T01:43:34.483Z,2.92
2022-08-04T01:46:04.172Z,2.70
2022-08-04T01:48:32.103Z,3.00
2022-08-04T01:51:04.194Z,2.80
2022-08-04T01:53:34.072Z,2.75
2022-08-04T01:56:06.087Z,3.00
2022-08-04T01:58:36.197Z,2.85
2022-08-04T02:01:12.188Z,2.80
2022-08-04T02:04:21.405Z,2.90
2022-08-04T02:07:00.855Z,2.78
2022-08-04T02:09:54.342Z,2.80
2022-08-04T02:13:00.578Z,3.25
2022-08-04T02:16:00.399Z,2.65
2022-08-04T02:18:48.275Z,2.80
2022-08-04T02:21:20.444Z,2.83
2022-08-04T02:23:54.160Z,3.00
2022-08-04T02:26:23.125Z,3.10
2022-08-04T02:29:15.686Z,2.92
2022-08-04T02:32:04.832Z,3.40
2022-08-04T02:34:40.295Z,3.30
2022-08-04T02:37:09.350Z,3.03
2022-08-04T02:39:48.972Z,3.00
2022-08-04T02:42:17.467Z,2.70
2022-08-04T02:44:50.507Z,2.95
2022-08-04T02:47:22.673Z,3.08
2022-08-04T02:49:51.641Z,3.97
2022-08-04T02:52:20.789Z,3.17
2022-08-04T02:54:51.322Z,3.65
2022-08-04T02:57:19.159Z,2.90
2022-08-04T03:00:05.439Z,2.90
2022-08-04T03:03:03.876Z,3.28
2022-08-04T03:06:01.614Z,2.80
2022-08-04T03:08:31.773Z,3.30
2022-08-04T03:11:36.969Z,3.17
2022-08-04T03:17:14.922Z,3.03
2022-08-04T03:20:03.480Z,3.40
2022-08-04T03:23:13.397Z,3.45
2022-08-04T03:26:08.741Z,3.28
2022-08-04T03:32:00.949Z,3.90
2022-08-04T03:34:53.577Z,3.58
2022-08-04T03:37:45.781Z,3.20
2022-08-04T03:40:24.745Z,3.42
2022-08-04T03:43:59.035Z,3.28
2022-08-04T03:46:28.276Z,3.67
2022-08-04T03:49:01.340Z,3.50
2022-08-04T03:52:10.717Z,3.70
2022-08-04T03:54:52.822Z,3.65
2022-08-04T03:57:39.986Z,3.70
2022-08-04T04:00:08.081Z,3.22
2022-08-04T04:02:58.821Z,3.63
2022-08-04T04:06:00.015Z,3.40
2022-08-04T04:08:45.143Z,3.42
2022-08-04T04:11:22.332Z,3.60
2022-08-04T04:14:09.418Z,3.10
2022-08-04T04:17:14.398Z,4.13
2022-08-04T04:22:47.383Z,3.72
2022-08-04T04:25:30.269Z,3.67
2022-08-04T04:28:45.507Z,4.00
2022-08-04T04:31:47.349Z,3.95
2022-08-04T04:34:36.223Z,3.90
2022-08-04T04:37:30.402Z,4.03
2022-08-04T04:40:10.807Z,3.67
2022-08-04T04:43:50.968Z,3.60
2022-08-04T04:46:15.431Z,3.97
2022-08-04T04:49:11.631Z,4.07
2022-08-04T04:51:50.780Z,5.32
2022-08-04T04:54:34.273Z,4.18
2022-08-04T04:57:17.942Z,4.40
2022-08-04T04:59:57.936Z,4.53
2022-08-04T05:03:08.971Z,4.63
2022-08-04T05:06:10.398Z,4.05
2022-08-04T05:09:12.170Z,4.50
2022-08-04T05:14:32.474Z,4.28
2022-08-04T05:14:58.093Z,4.28
2022-08-04T05:17:35.248Z,4.30
2022-08-04T05:20:06.558Z,4.70
2022-08-04T05:22:41.189Z,4.45
2022-08-04T05:25:31.794Z,4.20
2022-08-04T05:28:19.691Z,3.90
2022-08-04T05:30:54.081Z,4.93
2022-08-04T05:33:29.142Z,4.22
2022-08-04T05:36:18.753Z,4.80
2022-08-04T05:38:53.690Z,4.13
2022-08-04T05:41:22.491Z,4.60
2022-08-04T05:43:50.187Z,4.60
2022-08-04T05:46:18.558Z,4.90
2022-08-04T05:48:47.049Z,5.00
2022-08-04T05:51:15.599Z,4.00
2022-08-04T05:53:44.631Z,3.97
2022-08-04T05:56:15.187Z,4.32
2022-08-04T05:58:44.735Z,4.30
2022-08-04T06:01:12.881Z,4.18
2022-08-04T06:03:41.580Z,7.50
2022-08-04T06:06:09.517Z,4.22
2022-08-04T06:08:36.469Z,4.40
2022-08-04T06:11:07.098Z,4.40
2022-08-04T06:13:48.017Z,3.80
2022-08-04T06:16:29.795Z,5.15
2022-08-04T06:20:03.633Z,4.10
2022-08-04T06:21:50.994Z,5.45
2022-08-04T06:24:24.879Z,4.07
2022-08-04T06:26:52.843Z,4.32
2022-08-04T06:29:30.742Z,4.38
2022-08-04T06:32:27.885Z,4.43
2022-08-04T06:34:46.710Z,4.40
2022-08-04T06:37:41.206Z,4.30
2022-08-04T06:40:30.736Z,4.53
2022-08-04T06:42:52.750Z,4.70
2022-08-04T06:45:21.489Z,4.93
2022-08-04T06:47:50.082Z,5.53
2022-08-04T06:51:30.288Z,5.22
2022-08-04T06:53:05.050Z,5.28
2022-08-04T06:59:14.469Z,4.72
2022-08-04T07:01:43.097Z,4.80
2022-08-04T07:04:11.791Z,4.97
2022-08-04T07:06:38.994Z,4.93
2022-08-04T07:09:06.783Z,4.72
2022-08-04T07:11:39.235Z,5.15
2022-08-04T07:18:18.656Z,4.55
2022-08-04T07:20:46.804Z,4.90
2022-08-04T07:23:17.856Z,5.03
2022-08-04T07:26:00.066Z,5.22
2022-08-04T07:28:39.332Z,5.50
2022-08-04T07:31:09.727Z,5.07
2022-08-04T07:33:37.393Z,5.22
2022-08-04T07:36:11.557Z,5.07
2022-08-04T07:38:48.746Z,5.10
2022-08-04T07:41:38.742Z,5.65
2022-08-04T07:44:06.987Z,4.88
2022-08-04T07:46:34.218Z,4.78
2022-08-04T07:49:01.891Z,5.32
2022-08-04T07:51:30.729Z,5.20
2022-08-04T07:53:58.634Z,4.88
2022-08-04T07:56:26.896Z,4.78
2022-08-04T07:58:54.334Z,4.88
2022-08-04T08:05:02.723Z,5.00
2022-08-04T08:07:29.656Z,4.45
2022-08-04T08:09:56.950Z,4.60
2022-08-04T08:12:38.441Z,4.00
2022-08-04T08:15:15.909Z,4.90
2022-08-04T08:17:58.135Z,4.60
2022-08-04T08:20:29.620Z,5.00
2022-08-04T08:22:57.668Z,4.43
2022-08-04T08:25:24.893Z,4.53
2022-08-04T08:27:56.237Z,4.47
2022-08-04T08:30:24.384Z,4.72
2022-08-04T08:32:51.575Z,4.30
2022-08-04T08:35:19.235Z,3.97
2022-08-04T08:37:55.042Z,4.10
2022-08-04T08:40:54.157Z,4.10
2022-08-04T08:44:06.272Z,4.30
2022-08-04T08:46:49.043Z,4.32
2022-08-04T08:50:02.492Z,4.15
2022-08-04T08:52:56.271Z,3.83
2022-08-04T08:55:40.689Z,4.22
2022-08-04T08:58:35.133Z,3.70
2022-08-04T09:01:23.744Z,3.88
2022-08-04T09:04:23.530Z,3.72
2022-08-04T09:06:58.032Z,3.97
2022-08-04T09:09:52.679Z,3.40
2022-08-04T09:12:33.913Z,3.33
2022-08-04T09:15:20.337Z,4.05
2022-08-04T09:18:16.226Z,3.75
2022-08-04T09:20:51.773Z,3.97
2022-08-04T09:23:43.356Z,3.50
2022-08-04T09:26:29.671Z,3.60
2022-08-04T09:29:16.000Z,3.53
2022-08-04T09:32:10.524Z,3.95
2022-08-04T09:35:02.113Z,4.57
2022-08-04T09:37:46.114Z,3.92
2022-08-04T09:40:53.139Z,3.38
2022-08-04T09:44:42.981Z,3.60
2022-08-04T09:46:35.041Z,4.40
2022-08-04T09:49:23.229Z,3.85
2022-08-04T09:51:57.166Z,3.92
2022-08-04T09:54:43.608Z,4.22
2022-08-04T09:57:39.158Z,3.78
2022-08-04T10:00:10.158Z,3.40
2022-08-04T10:02:44.462Z,4.20
2022-08-04T10:05:22.370Z,3.50
2022-08-04T10:08:15.428Z,3.47
2022-08-04T10:11:07.187Z,3.88
2022-08-04T10:13:53.464Z,3.80
2022-08-04T10:16:40.366Z,3.35
2022-08-04T10:23:12.273Z,3.50
2022-08-04T10:26:05.966Z,3.20
2022-08-04T10:29:02.432Z,3.70
2022-08-04T10:32:09.440Z,4.05
2022-08-04T10:34:48.636Z,3.67
2022-08-04T10:37:20.868Z,3.53
2022-08-04T10:40:15.475Z,3.20
2022-08-04T10:42:53.958Z,3.03
2022-08-04T10:45:26.314Z,3.75
2022-08-04T10:48:34.421Z,3.27
2022-08-04T10:51:11.741Z,3.00
2022-08-04T10:53:40.064Z,3.38
2022-08-04T10:56:15.852Z,3.70
2022-08-04T10:58:52.519Z,3.25
2022-08-04T11:02:00.839Z,3.05
2022-08-04T11:08:14.337Z,3.47
2022-08-04T11:10:51.666Z,3.53
2022-08-04T11:13:22.082Z,3.55
2022-08-04T11:15:59.373Z,3.55
2022-08-04T11:18:38.926Z,3.60
2022-08-04T11:21:15.919Z,3.40
2022-08-04T11:23:55.328Z,3.40
2022-08-04T11:26:29.613Z,3.22
2022-08-04T11:29:08.502Z,3.08
2022-08-04T11:31:47.237Z,3.35
2022-08-04T11:34:22.630Z,3.20
2022-08-04T11:37:23.180Z,3.60
2022-08-04T11:40:13.709Z,3.47
2022-08-04T11:42:48.135Z,3.58
2022-08-04T11:45:24.767Z,3.72
2022-08-04T11:48:00.838Z,4.00
2022-08-04T11:50:54.028Z,3.40
2022-08-04T11:53:25.588Z,3.78
2022-08-04T11:56:07.172Z,4.03
2022-08-04T11:58:36.329Z,3.63
2022-08-04T12:01:03.948Z,3.30
2022-08-04T12:03:46.466Z,3.75
2022-08-04T12:06:57.121Z,3.72
2022-08-04T12:09:58.866Z,3.58
2022-08-04T12:12:35.068Z,4.00
2022-08-04T12:15:10.511Z,3.70
2022-08-04T12:18:02.638Z,3.55
2022-08-04T12:20:41.028Z,3.95
2022-08-04T12:27:18.586Z,3.53
2022-08-04T12:30:56.335Z,4.18
2022-08-04T12:32:39.281Z,3.80
2022-08-04T12:35:22.120Z,3.50
2022-08-04T12:37:52.437Z,3.50
2022-08-04T12:40:29.614Z,3.28
2022-08-04T12:43:11.519Z,3.70
2022-08-04T12:45:44.963Z,3.25
2022-08-04T12:48:21.050Z,4.47
2022-08-04T12:50:52.132Z,3.40
2022-08-04T12:53:31.795Z,3.42
2022-08-04T12:56:02.363Z,3.25
2022-08-04T12:58:43.813Z,3.42
2022-08-04T13:02:11.266Z,4.05
2022-08-04T13:04:29.712Z,3.70
2022-08-04T13:07:10.272Z,3.65
2022-08-04T13:09:38.211Z,4.18
2022-08-04T13:12:32.528Z,3.72
2022-08-04T13:15:17.975Z,3.95
2022-08-04T13:17:59.329Z,3.40
2022-08-04T13:20:32.027Z,3.47
2022-08-04T13:23:14.545Z,3.85
2022-08-04T13:26:42.740Z,3.50
2022-08-04T13:28:45.193Z,3.53
2022-08-04T13:31:17.048Z,3.67
2022-08-04T13:33:47.766Z,3.72
2022-08-04T13:36:17.048Z,3.67
2022-08-04T13:38:55.252Z,3.38
2022-08-04T13:41:27.666Z,4.30
2022-08-04T13:44:18.225Z,3.65
2022-08-04T13:46:52.063Z,3.78
2022-08-04T13:49:38.140Z,3.80
2022-08-04T13:52:11.316Z,4.10
2022-08-04T13:54:47.379Z,4.00
2022-08-04T13:57:30.683Z,3.80
2022-08-04T14:00:05.396Z,3.58
2022-08-04T14:02:46.230Z,3.70
2022-08-04T14:05:28.022Z,3.25
2022-08-04T14:08:09.079Z,3.83
2022-08-04T14:10:37.174Z,3.40
2022-08-04T14:13:06.314Z,3.40
2022-08-04T14:16:03.823Z,3.75
2022-08-04T14:18:32.740Z,3.25
2022-08-04T14:21:03.099Z,2.92
2022-08-04T14:23:47.192Z,2.80
2022-08-04T14:26:32.598Z,3.05
2022-08-04T14:29:27.456Z,3.17
2022-08-04T14:32:06.007Z,3.10
2022-08-04T14:37:18.445Z,3.28
2022-08-04T14:40:17.315Z,2.92
2022-08-04T14:42:44.643Z,3.60
2022-08-04T14:45:30.584Z,2.95
2022-08-04T14:47:57.795Z,3.10
2022-08-04T14:50:39.055Z,2.78
2022-08-04T14:53:32.025Z,2.60
2022-08-04T14:56:00.593Z,2.90
2022-08-04T14:58:34.926Z,3.30
2022-08-04T15:01:11.714Z,3.35
2022-08-04T15:03:51.755Z,2.95
2022-08-04T15:06:26.313Z,2.78
2022-08-04T15:08:57.604Z,3.00
2022-08-04T15:11:25.573Z,3.40
2022-08-04T15:13:54.934Z,2.90
2022-08-04T15:16:23.291Z,3.63
2022-08-04T15:18:52.734Z,3.88
2022-08-04T15:21:22.826Z,3.70
2022-08-04T15:23:50.900Z,3.80
2022-08-04T15:26:29.256Z,3.58
2022-08-04T15:29:02.492Z,4.10
2022-08-04T15:32:07.468Z,4.15
2022-08-04T15:34:23.877Z,4.32
2022-08-04T15:36:56.973Z,4.13
2022-08-04T15:40:32.689Z,3.83
2022-08-04T15:43:24.807Z,3.50
2022-08-04T15:46:02.127Z,3.70
2022-08-04T15:48:41.572Z,3.78
2022-08-04T15:51:14.351Z,3.72
2022-08-04T15:54:02.794Z,4.00
2022-08-04T15:56:29.735Z,4.05
2022-08-04T15:58:57.500Z,4.63
2022-08-04T16:01:25.223Z,4.22
2022-08-04T16:03:59.765Z,4.07
2022-08-04T16:06:29.808Z,4.65
2022-08-04T16:09:05.547Z,4.05
2022-08-04T16:11:33.354Z,4.38
2022-08-04T16:14:01.124Z,4.80
2022-08-04T16:16:46.880Z,5.70
2022-08-04T16:19:34.945Z,4.68
2022-08-04T16:25:46.714Z,5.32
2022-08-04T16:28:35.591Z,4.53
2022-08-04T16:31:05.626Z,5.32
2022-08-04T16:33:43.632Z,4.88
2022-08-04T16:36:12.995Z,4.82
2022-08-04T16:39:03.801Z,4.85
2022-08-04T16:41:44.739Z,5.72
2022-08-04T16:44:53.023Z,5.13
2022-08-04T16:47:49.101Z,5.50
2022-08-04T16:50:21.227Z,4.97
2022-08-04T16:52:51.112Z,5.07
2022-08-04T16:55:19.566Z,5.43
2022-08-04T16:57:47.869Z,5.10
2022-08-04T17:00:15.329Z,5.18
2022-08-04T17:02:43.506Z,5.50
2022-08-04T17:05:38.767Z,5.53
2022-08-04T17:08:29.066Z,5.18
2022-08-04T17:10:55.789Z,5.18
2022-08-04T17:14:02.054Z,5.28
2022-08-04T17:16:19.463Z,5.75
2022-08-04T17:18:57.907Z,5.13
2022-08-04T17:21:34.423Z,5.55
2022-08-04T17:24:15.027Z,5.20
2022-08-04T17:26:54.027Z,5.00
2022-08-04T17:29:22.783Z,5.10
2022-08-04T17:32:14.137Z,5.70
2022-08-04T17:34:41.136Z,5.22
2022-08-04T17:37:37.918Z,5.65
2022-08-04T17:40:14.313Z,5.72
2022-08-04T17:42:45.883Z,6.03
2022-08-04T17:48:24.117Z,5.38
2022-08-04T17:50:52.302Z,5.70
2022-08-04T17:54:01.526Z,5.88
2022-08-04T17:56:51.545Z,5.80
2022-08-04T17:59:55.917Z,6.18
2022-08-04T18:02:33.265Z,6.05
2022-08-04T18:05:07.564Z,5.38
2022-08-04T18:08:39.098Z,6.22
2022-08-04T18:10:52.508Z,6.65
2022-08-04T18:13:27.491Z,6.22
2022-08-04T18:16:02.407Z,6.00
2022-08-04T18:18:30.075Z,5.80
2022-08-04T18:20:59.553Z,6.70
2022-08-04T18:23:31.389Z,6.40
2022-08-04T18:25:58.545Z,6.35
2022-08-04T18:28:27.009Z,5.60
2022-08-04T18:30:55.496Z,5.95
2022-08-04T18:33:39.430Z,6.13
2022-08-04T18:36:34.731Z,6.32
2022-08-04T18:39:11.938Z,6.63
2022-08-04T18:42:02.596Z,6.30
2022-08-04T18:44:29.438Z,6.88
2022-08-04T18:47:19.278Z,6.65
2022-08-04T18:50:58.687Z,6.45
2022-08-04T18:52:33.182Z,7.18
2022-08-04T18:55:01.985Z,7.60
2022-08-04T18:58:00.878Z,7.82
2022-08-04T19:00:20.556Z,8.23
2022-08-04T19:02:47.781Z,7.35
2022-08-04T19:05:17.028Z,7.03
2022-08-04T19:08:02.329Z,7.22
2022-08-04T19:10:31.692Z,7.20
2022-08-04T19:12:59.533Z,8.07
2022-08-04T19:15:34.620Z,8.48
2022-08-04T19:18:02.475Z,8.13
2022-08-04T19:20:40.435Z,7.43
2022-08-04T19:24:30.648Z,11.73
2022-08-04T19:25:59.644Z,8.95
2022-08-04T19:28:34.844Z,8.00
2022-08-04T19:31:07.974Z,8.88
2022-08-04T19:33:58.710Z,7.85
2022-08-04T19:36:28.515Z,8.07
2022-08-04T19:38:58.094Z,7.73
2022-08-04T19:41:26.705Z,9.27
2022-08-04T19:43:54.093Z,8.35
2022-08-04T19:46:24.980Z,8.48
2022-08-04T19:48:59.217Z,8.27
2022-08-04T19:51:28.836Z,8.35
2022-08-04T19:54:02.722Z,9.45
2022-08-04T19:56:40.826Z,8.85
2022-08-04T19:59:09.776Z,8.38
2022-08-04T20:01:44.390Z,9.18
2022-08-04T20:04:13.139Z,8.07
2022-08-04T20:06:40.107Z,8.98
2022-08-04T20:09:24.900Z,8.38
2022-08-04T20:11:56.634Z,8.48
2022-08-04T20:14:32.699Z,8.95
2022-08-04T20:17:02.255Z,8.68
2022-08-04T20:19:30.347Z,8.93
2022-08-04T20:21:57.995Z,10.23
2022-08-04T20:24:38.875Z,8.05
2022-08-04T20:27:38.552Z,9.43
2022-08-04T20:29:59.456Z,9.18
2022-08-04T20:32:27.833Z,9.77
2022-08-04T20:34:56.029Z,9.48
2022-08-04T20:37:25.148Z,9.32
2022-08-04T20:39:57.351Z,9.07
2022-08-04T20:42:34.081Z,8.73
2022-08-04T20:45:01.949Z,9.13
2022-08-04T20:47:33.707Z,9.30
2022-08-04T20:50:03.889Z,9.75
2022-08-04T20:52:30.883Z,10.25
2022-08-04T20:54:57.920Z,9.32
2022-08-04T20:57:48.753Z,10.18
2022-08-04T21:00:13.319Z,8.85
2022-08-04T21:02:41.476Z,9.07
2022-08-04T21:05:09.382Z,8.93
2022-08-04T21:07:41.723Z,10.25
2022-08-04T21:10:11.203Z,8.90
2022-08-04T21:12:38.394Z,8.95
2022-08-04T21:15:14.498Z,9.23
2022-08-04T21:17:57.529Z,9.05
2022-08-04T21:20:29.998Z,8.95
2022-08-04T21:22:59.469Z,9.50
2022-08-04T21:25:26.837Z,10.18
2022-08-04T21:27:53.700Z,9.45
2022-08-04T21:30:25.232Z,10.10
2022-08-04T21:32:54.971Z,9.80
2022-08-04T21:35:36.847Z,10.18
2022-08-04T21:38:16.606Z,8.57
2022-08-04T21:40:56.262Z,9.20
2022-08-04T21:43:27.380Z,10.30
2022-08-04T21:45:56.568Z,9.75
2022-08-04T21:48:27.519Z,9.35
2022-08-04T21:50:55.386Z,10.45
2022-08-04T21:53:24.259Z,9.32
2022-08-04T21:56:04.674Z,9.60
2022-08-04T21:58:36.131Z,9.40
2022-08-04T22:01:13.342Z,9.20
2022-08-04T22:03:53.136Z,9.57
2022-08-04T22:06:28.279Z,10.35
2022-08-04T22:08:56.991Z,10.20
2022-08-04T22:11:26.175Z,9.50
2022-08-04T22:14:10.934Z,9.38
2022-08-04T22:16:39.886Z,9.70
2022-08-04T22:19:08.905Z,9.30
2022-08-04T22:21:39.275Z,9.10
2022-08-04T22:24:13.842Z,10.23
2022-08-04T22:26:42.327Z,9.32
2022-08-04T22:29:14.233Z,9.63
2022-08-04T22:31:55.836Z,10.00
2022-08-04T22:34:25.075Z,9.68
2022-08-04T22:36:53.584Z,9.77
2022-08-04T22:39:23.695Z,10.00
2022-08-04T22:42:04.107Z,9.80
2022-08-04T22:44:33.515Z,8.98
2022-08-04T22:47:01.464Z,10.20
2022-08-04T22:49:31.400Z,9.75
2022-08-04T22:51:59.345Z,9.55
2022-08-04T22:54:29.787Z,9.32
2022-08-04T22:56:58.912Z,9.50
2022-08-04T22:59:27.628Z,9.32
2022-08-04T23:01:59.803Z,9.75
2022-08-04T23:04:29.834Z,8.57
2022-08-04T23:06:56.922Z,8.50
2022-08-04T23:09:49.533Z,8.93
2022-08-04T23:12:27.962Z,8.43
2022-08-04T23:14:56.947Z,8.82
2022-08-04T23:17:24.942Z,8.63
2022-08-04T23:19:57.868Z,9.43
2022-08-04T23:22:42.235Z,9.38
2022-08-04T23:25:15.991Z,8.50
2022-08-04T23:27:50.726Z,8.45
2022-08-04T23:30:21.723Z,8.35
2022-08-04T23:32:52.272Z,7.93
2022-08-04T23:35:19.429Z,8.40
2022-08-04T23:37:57.028Z,8.70
2022-08-04T23:40:34.186Z,7.60
2022-08-04T23:43:12.230Z,7.57
2022-08-04T23:46:04.214Z,7.30
2022-08-04T23:48:39.317Z,7.47
2022-08-04T23:51:14.753Z,6.85
2022-08-04T23:54:02.607Z,7.00
2022-08-04T23:56:31.891Z,6.85
2022-08-04T23:59:00.324Z,6.80
